Nearby METAR Reports

 

KOFF - Offutt Afb/Belle, Nebraska, USA
Distance from station: SE 6mi, 10km
Updated: 04/24/2018 4:56pm
Mostly cloudy
Mostly cloudy
 Wind from NW
Wind: NW 15 mph , 24 km/h, Gust: 31 mph , 50 km/h
Temperature: 64°F , 18°C
Dew Point: 43°F , 6°C
Humidity: 46%
Barometer: 30.11 inHg , 1019.6 hPa
Clouds: Mostly cloudy
Visibility: 10 miles , 16 km
Cloud details: Partly cloudy 10000 ft
Mostly cloudy 15000 ft
2018/04/24 21:56 KOFF 242156Z AUTO 32013G27KT 10SM SCT100 BKN150 18/06 A3011 RMK AO2 PK WND 31028/39 SLP202 T01780063 $
KMLE - Omaha/Millard, Nebraska, USA
Distance from station: W 7mi, 11km
Updated: 04/24/2018 5:15pm
Overcast
Overcast
 Wind from NW
Wind: NW 18 mph , 30 km/h, Gust: 24 mph , 39 km/h
Temperature: 61°F , 16°C
Dew Point: 48°F , 9°C
Humidity: 63%
Barometer: 30.15 inHg , 1021 hPa
Clouds: Overcast
Visibility: 10 miles , 16 km
Cloud details: Overcast 9500 ft
2018/04/24 22:15 KMLE 242215Z AUTO 31016G21KT 10SM OVC095 16/09 A3015 RMK AO2 T01570090
 
KOMA - Omaha/Eppley, Nebraska, USA
Distance from station: NNE 10mi, 15km
Updated: 04/24/2018 4:52pm
Overcast
Overcast
 Wind from NNW
Wind: NNW 16 mph , 26 km/h
Temperature: 64°F , 18°C
Dew Point: 43°F , 6°C
Humidity: 46%
Barometer: 30.12 inHg , 1020 hPa
Clouds: Overcast
Visibility: 10 miles , 16 km
Cloud details: Few Clouds 10000 ft
Mostly cloudy 12000 ft
Overcast 15000 ft
2018/04/24 21:52 KOMA 242152Z 33014KT 10SM FEW100 BKN120 OVC150 18/06 A3012 RMK AO2 PK WND 31027/2055 SLP201 T01830061
KCBF - Council Bluffs, Iowa, USA
Distance from station: ENE 12mi, 20km
Updated: 04/24/2018 5:15pm
Clear
Clear
 Wind from NNW
Wind: NNW 18 mph , 30 km/h
Temperature: 63°F , 17°C
Dew Point: 45°F , 7°C
Humidity: 52%
Barometer: 30.13 inHg , 1020.3 hPa
Clouds: Clear
Visibility: 10 miles , 16 km
2018/04/24 22:15 KCBF 242215Z AUTO 33016KT 10SM CLR 17/07 A3013 RMK AO2
 
KBTA - Blair Muni, Nebraska, USA
Distance from station: NNW 17mi, 27km
Updated: 04/24/2018 5:15pm
Mostly cloudy
Mostly cloudy
 Wind from WNW
Wind: WNW 14 mph , 22 km/h, Gust: 24 mph , 39 km/h
Temperature: 59°F , 15°C
Dew Point: 46°F , 8°C
Humidity: 63%
Barometer: 30.15 inHg , 1021 hPa
Clouds: Mostly cloudy
Visibility: 10 miles , 16 km
Cloud details: Mostly cloudy 8500 ft
2018/04/24 22:15 KBTA 242215Z AUTO 30012G21KT 10SM BKN085 15/08 A3015 RMK AO2 T01530078
KPMV - Plattsmouth Muni, Nebraska, USA
Distance from station: SSE 17mi, 28km
Updated: 04/24/2018 5:15pm
Mostly cloudy
Mostly cloudy
 Wind from NW
Wind: NW 21 mph , 33 km/h, Gust: 29 mph , 46 km/h
Temperature: 63°F , 17°C
Dew Point: 45°F , 7°C
Humidity: 52%
Barometer: 30.13 inHg , 1020.3 hPa
Clouds: Mostly cloudy
Visibility: 10 miles , 16 km
Cloud details: Mostly cloudy 10000 ft
2018/04/24 22:15 KPMV 242215Z AUTO 31018G25KT 10SM BKN100 17/07 A3013 RMK AO2 T01710067
 
KAHQ - Wahoo, Nebraska, USA
Distance from station: W 32mi, 52km
Updated: 04/24/2018 5:15pm
Rain, Overcast
Rain, Overcast
 Wind from NW
Wind: NW 13 mph , 20 km/h
Temperature: 54°F , 12°C
Dew Point: 48°F , 9°C
Humidity: 82%
Barometer: 30.19 inHg , 1022.4 hPa
Summary: Rain
Clouds: Overcast
Visibility: 10 miles , 16 km
Cloud details: Partly cloudy 1000 ft
Mostly cloudy 4200 ft
Overcast 7000 ft
2018/04/24 22:15 KAHQ 242215Z AUTO 31011KT 10SM RA SCT010 BKN042 OVC070 12/09 A3019 RMK AO2 T01180090
KFET - Fremont Muni Arp, Nebraska, USA
Distance from station: WNW 33mi, 53km
Updated: 04/24/2018 5:15pm
Rain, Overcast
Rain, Overcast
 Wind from WNW
Wind: WNW 12 mph , 19 km/h
Temperature: 54°F , 12°C
Dew Point: 50°F , 10°C
Humidity: 88%
Barometer: 30.19 inHg , 1022.4 hPa
Summary: Rain
Clouds: Overcast
Visibility: 10 miles , 16 km
Cloud details: Mostly cloudy 1100 ft
Mostly cloudy 3100 ft
Overcast 8000 ft
2018/04/24 22:15 KFET 242215Z AUTO 30010KT 10SM RA BKN011 BKN031 OVC080 12/10 A3019 RMK AO2 T01220102
 
KRDK - Red Oak, Iowa, USA
Distance from station: ESE 39mi, 63km
Updated: 04/24/2018 5:15pm
Mostly cloudy
Mostly cloudy
 Wind from NW
Wind: NW 20 mph , 31 km/h, Gust: 32 mph , 52 km/h
Temperature: 68°F , 20°C
Dew Point: 43°F , 6°C
Humidity: 40%
Barometer: 30.09 inHg , 1019 hPa
Clouds: Mostly cloudy
Visibility: 10 miles , 16 km
Cloud details: Mostly cloudy 9500 ft
2018/04/24 22:15 KRDK 242215Z AUTO 32017G28KT 10SM BKN095 20/06 A3009 RMK AO2
KTQE - Tekamah, Nebraska, USA
Distance from station: NNW 41mi, 66km
Updated: 04/24/2018 4:54pm
Overcast
Overcast
 Wind from NW
Wind: NW 16 mph , 26 km/h
Temperature: 61°F , 16°C
Barometer: 30.16 inHg , 1021.3 hPa
Clouds: Overcast
Visibility: 10 miles , 16 km
Cloud details: Overcast 9000 ft
2018/04/24 21:54 KTQE 242154Z AUTO 32014KT 10SM OVC090 16/ A3016 RMK AO2 SLP210 T0156 $
 
KAFK - Nebraska City, Nebraska, USA
Distance from station: S 42mi, 67km
Updated: 04/24/2018 5:15pm
Mostly cloudy
Mostly cloudy
 Wind from NNW
Wind: NNW 21 mph , 33 km/h, Gust: 35 mph , 56 km/h
Temperature: 64°F , 18°C
Dew Point: 43°F , 6°C
Humidity: 46%
Barometer: 30.12 inHg , 1020 hPa
Clouds: Mostly cloudy
Visibility: 10 miles , 16 km
Cloud details: Mostly cloudy 9500 ft
2018/04/24 22:15 KAFK 242215Z AUTO 34018G30KT 10SM BKN095 18/06 A3012 RMK AO2 T01790064
KHNR - Harlan Muni, Iowa, USA
Distance from station: NE 43mi, 69km
Updated: 04/24/2018 5:15pm
Overcast
Overcast
 Wind from NW
Wind: NW 25 mph , 41 km/h, Gust: 36 mph , 57 km/h
Temperature: 66°F , 19°C
Dew Point: 41°F , 5°C
Humidity: 40%
Barometer: 30.13 inHg , 1020.3 hPa
Clouds: Overcast
Visibility: 10 miles , 16 km
Cloud details: Overcast 9000 ft
2018/04/24 22:15 KHNR 242215Z AUTO 32022G31KT 10SM OVC090 19/05 A3013 RMK AO2
 
KSDA - Shenandoah Muni, Iowa, USA
Distance from station: SE 43mi, 69km
Updated: 04/24/2018 5:15pm
Few Clouds
Few Clouds
 Wind from NW
Wind: NW 17 mph , 28 km/h, Gust: 25 mph , 41 km/h
Temperature: 70°F , 21°C
Dew Point: 41°F , 5°C
Humidity: 35%
Barometer: 30.09 inHg , 1019 hPa
Clouds: Few Clouds
Visibility: 10 miles , 16 km
Cloud details: Few Clouds 10000 ft
Few Clouds 12000 ft
2018/04/24 22:15 KSDA 242215Z AUTO 32015G22KT 10SM FEW100 FEW120 21/05 A3009 RMK AO2
KLNK - Lincoln, Nebraska, USA
Distance from station: WSW 47mi, 76km
Updated: 04/24/2018 4:54pm
Light rain, Overcast
Light rain, Overcast
 Wind from NW
Wind: NW 12 mph , 19 km/h
Temperature: 54°F , 12°C
Dew Point: 48°F , 9°C
Humidity: 82%
Barometer: 30.21 inHg , 1023 hPa
Summary: Light rain
Clouds: Overcast
Visibility: 10 miles , 16 km
Cloud details: Mostly cloudy 1300 ft
Overcast 3600 ft
2018/04/24 21:54 KLNK 242154Z 31010KT 10SM -RA BKN013 OVC036 12/09 A3021 RMK AO2 RAB03 SLP235 P0000 T01170094
 
KAIO - Atlantic, Iowa, USA
Distance from station: ENE 51mi, 82km
Updated: 04/24/2018 5:15pm
Overcast
Overcast
 Wind from N
Wind: N 10 mph , 17 km/h
Temperature: 70°F , 21°C
Dew Point: 34°F , 1°C
Humidity: 27%
Barometer: 30.07 inHg , 1018.3 hPa
Clouds: Overcast
Visibility: 10 miles , 16 km
Cloud details: Overcast 9500 ft
2018/04/24 22:15 KAIO 242215Z AUTO 35009KT 10SM OVC095 21/01 A3007 RMK AO2
KICL - Clarinda, Iowa, USA
Distance from station: ESE 60mi, 97km
Updated: 04/24/2018 5:15pm
Few Clouds
Few Clouds
 Wind from NW
Wind: NW 12 mph , 19 km/h, Gust: 17 mph , 28 km/h
Temperature: 73°F , 23°C
Dew Point: 32°F , 0°C
Humidity: 22%
Barometer: 30.08 inHg , 1018.6 hPa
Clouds: Few Clouds
Visibility: 10 miles , 16 km
Cloud details: Few Clouds 10000 ft
2018/04/24 22:15 KICL 242215Z AUTO 31010G15KT 10SM FEW100 23/00 A3008 RMK AO2
 
KDNS - Denison, Iowa, USA
Distance from station: NNE 62mi, 100km
Updated: 04/24/2018 5:15pm
Clear
Clear
 Wind from N
Wind: N 18 mph , 30 km/h, Gust: 25 mph , 41 km/h
Temperature: 63°F , 17°C
Dew Point: 43°F , 6°C
Humidity: 49%
Barometer: 30.14 inHg , 1020.7 hPa
Clouds: Clear
Visibility: 10 miles , 16 km
2018/04/24 22:15 KDNS 242215Z AUTO 36016G22KT 10SM CLR 17/06 A3014 RMK AO2
KADU - Audubon, Iowa, USA
Distance from station: ENE 65mi, 105km
Updated: 04/24/2018 5:15pm
Mostly cloudy
Mostly cloudy
 Wind from N
Wind: N 12 mph , 19 km/h
Temperature: 68°F , 20°C
Dew Point: 37°F , 3°C
Humidity: 33%
Barometer: 30.09 inHg , 1019 hPa
Clouds: Mostly cloudy
Visibility: 10 miles , 16 km
Cloud details: Mostly cloudy 8000 ft
2018/04/24 22:15 KADU 242215Z AUTO 35010KT 10SM BKN080 20/03 A3009 RMK AO2
 
KOLU - Columbus Muni, Nebraska, USA
Distance from station: WNW 71mi, 115km
Updated: 04/24/2018 5:14pm
Light rain, Overcast
Light rain, Overcast
 Wind from NW
Wind: NW 12 mph , 19 km/h
Temperature: 50°F , 10°C
Wind Chill: 45°F , 7°C
Dew Point: 46°F , 8°C
Humidity: 88%
Barometer: 30.21 inHg , 1023 hPa
Summary: Light rain
Clouds: Overcast
Visibility: 10 miles , 16 km
Cloud details: Overcast 900 ft
2018/04/24 22:14 KOLU 242214Z AUTO 32010KT 10SM -RA OVC009 10/08 A3021 RMK AO2 CIG 008V013 P0000
KBIE - Beatrice Municip, Nebraska, USA
Distance from station: SSW 75mi, 120km
Updated: 04/24/2018 5:15pm
Overcast
Overcast
 Wind from NW
Wind: NW 15 mph , 24 km/h
Temperature: 54°F , 12°C
Dew Point: 48°F , 9°C
Humidity: 82%
Barometer: 30.19 inHg , 1022.4 hPa
Clouds: Overcast
Visibility: 10 miles , 16 km
Cloud details: Partly cloudy 7000 ft
Overcast 8000 ft
2018/04/24 22:15 KBIE 242215Z AUTO 31013KT 10SM SCT070 OVC080 12/09 A3019 RMK AO2 T01240092